sensor_id;sensor_type;location;lat;lon;timestamp;pressure;altitude;pressure_sealevel;temperature;humidity
70902;BME280;58548;47.210;8.618;2022-11-20T00:01:31;93722.06;;;14.31;39.24
70902;BME280;58548;47.210;8.618;2022-11-20T00:03:58;93728.91;;;14.32;39.32
70902;BME280;58548;47.210;8.618;2022-11-20T00:06:26;93726.28;;;14.32;39.13
70902;BME280;58548;47.210;8.618;2022-11-20T00:08:59;93713.00;;;14.27;39.16
70902;BME280;58548;47.210;8.618;2022-11-20T00:11:34;93738.16;;;14.35;39.13
70902;BME280;58548;47.210;8.618;2022-11-20T00:14:01;93735.53;;;14.35;39.43
70902;BME280;58548;47.210;8.618;2022-11-20T00:16:30;93732.56;;;14.31;39.38
70902;BME280;58548;47.210;8.618;2022-11-20T00:18:58;93699.47;;;14.12;39.22
70902;BME280;58548;47.210;8.618;2022-11-20T00:21:30;93734.59;;;14.29;39.13
70902;BME280;58548;47.210;8.618;2022-11-20T00:23:57;93721.22;;;14.19;38.97
70902;BME280;58548;47.210;8.618;2022-11-20T00:26:25;93719.22;;;14.14;39.16
70902;BME280;58548;47.210;8.618;2022-11-20T00:28:54;93732.78;;;14.30;39.17
70902;BME280;58548;47.210;8.618;2022-11-20T00:31:23;93726.81;;;14.23;39.11
70902;BME280;58548;47.210;8.618;2022-11-20T00:33:52;93731.25;;;14.22;39.00
70902;BME280;58548;47.210;8.618;2022-11-20T00:36:20;93734.84;;;14.28;39.21
70902;BME280;58548;47.210;8.618;2022-11-20T00:38:47;93720.16;;;14.20;38.93
70902;BME280;58548;47.210;8.618;2022-11-20T00:41:15;93743.66;;;14.33;39.00
70902;BME280;58548;47.210;8.618;2022-11-20T00:43:42;93723.59;;;14.21;39.15
70902;BME280;58548;47.210;8.618;2022-11-20T00:46:14;93749.25;;;14.37;39.16
70902;BME280;58548;47.210;8.618;2022-11-20T00:48:41;93743.56;;;14.40;38.94
70902;BME280;58548;47.210;8.618;2022-11-20T00:51:09;93741.19;;;14.39;39.03
70902;BME280;58548;47.210;8.618;2022-11-20T00:53:36;93730.97;;;14.30;38.78
70902;BME280;58548;47.210;8.618;2022-11-20T00:56:14;93734.84;;;14.28;38.99
70902;BME280;58548;47.210;8.618;2022-11-20T00:58:43;93705.59;;;14.06;39.22
70902;BME280;58548;47.210;8.618;2022-11-20T01:01:19;93717.03;;;14.11;38.91
70902;BME280;58548;47.210;8.618;2022-11-20T01:03:48;93733.28;;;14.20;39.07
70902;BME280;58548;47.210;8.618;2022-11-20T01:06:34;93733.16;;;14.15;39.14
70902;BME280;58548;47.210;8.618;2022-11-20T01:09:07;93758.97;;;14.37;39.05
70902;BME280;58548;47.210;8.618;2022-11-20T01:11:41;93739.28;;;14.27;39.20
70902;BME280;58548;47.210;8.618;2022-11-20T01:14:16;93758.06;;;14.43;39.22
70902;BME280;58548;47.210;8.618;2022-11-20T01:16:50;93730.22;;;14.23;39.18
70902;BME280;58548;47.210;8.618;2022-11-20T01:19:20;93768.16;;;14.46;39.28
70902;BME280;58548;47.210;8.618;2022-11-20T01:21:50;93753.56;;;14.31;38.83
70902;BME280;58548;47.210;8.618;2022-11-20T01:24:18;93744.88;;;14.31;39.32
70902;BME280;58548;47.210;8.618;2022-11-20T01:26:47;93768.97;;;14.46;39.33
70902;BME280;58548;47.210;8.618;2022-11-20T01:29:21;93742.06;;;14.32;39.26
70902;BME280;58548;47.210;8.618;2022-11-20T01:31:47;93754.50;;;14.37;39.74
70902;BME280;58548;47.210;8.618;2022-11-20T01:34:20;93747.75;;;14.29;39.58
70902;BME280;58548;47.210;8.618;2022-11-20T01:36:48;93755.34;;;14.38;39.89
70902;BME280;58548;47.210;8.618;2022-11-20T01:39:24;93751.88;;;14.37;39.64
70902;BME280;58548;47.210;8.618;2022-11-20T01:41:54;93769.66;;;14.54;39.82
70902;BME280;58548;47.210;8.618;2022-11-20T01:44:58;93774.84;;;14.60;39.97
70902;BME280;58548;47.210;8.618;2022-11-20T01:47:40;93753.19;;;14.46;40.04
70902;BME280;58548;47.210;8.618;2022-11-20T01:50:15;93768.44;;;14.56;39.92
70902;BME280;58548;47.210;8.618;2022-11-20T01:52:50;93772.28;;;14.72;39.71
70902;BME280;58548;47.210;8.618;2022-11-20T01:55:28;93734.66;;;14.41;39.87
70902;BME280;58548;47.210;8.618;2022-11-20T01:58:01;93775.88;;;14.78;40.11
70902;BME280;58548;47.210;8.618;2022-11-20T02:00:30;93779.06;;;14.80;39.94
70902;BME280;58548;47.210;8.618;2022-11-20T02:03:01;93769.44;;;14.74;39.60
70902;BME280;58548;47.210;8.618;2022-11-20T02:05:43;93774.94;;;14.84;39.91
70902;BME280;58548;47.210;8.618;2022-11-20T02:08:11;93779.44;;;14.84;39.96
70902;BME280;58548;47.210;8.618;2022-11-20T02:10:38;93751.91;;;14.68;39.84
70902;BME280;58548;47.210;8.618;2022-11-20T02:13:06;93750.47;;;14.72;40.01
70902;BME280;58548;47.210;8.618;2022-11-20T02:15:52;93773.94;;;14.85;40.18
70902;BME280;58548;47.210;8.618;2022-11-20T02:18:20;93778.16;;;14.86;39.87
70902;BME280;58548;47.210;8.618;2022-11-20T02:20:53;93780.34;;;14.89;39.73
70902;BME280;58548;47.210;8.618;2022-11-20T02:25:56;93738.19;;;14.66;40.09
70902;BME280;58548;47.210;8.618;2022-11-20T02:28:24;93764.91;;;14.81;40.17
70902;BME280;58548;47.210;8.618;2022-11-20T02:30:52;93774.94;;;14.84;40.04
70902;BME280;58548;47.210;8.618;2022-11-20T02:33:20;93777.38;;;14.86;40.02
70902;BME280;58548;47.210;8.618;2022-11-20T02:35:47;93756.16;;;14.69;39.86
70902;BME280;58548;47.210;8.618;2022-11-20T02:38:14;93777.38;;;14.86;40.00
70902;BME280;58548;47.210;8.618;2022-11-20T02:40:42;93777.97;;;14.88;39.82
70902;BME280;58548;47.210;8.618;2022-11-20T02:43:08;93749.88;;;14.70;39.65
70902;BME280;58548;47.210;8.618;2022-11-20T02:45:35;93760.09;;;14.78;39.84
70902;BME280;58548;47.210;8.618;2022-11-20T02:48:01;93776.94;;;14.89;39.76
70902;BME280;58548;47.210;8.618;2022-11-20T02:50:27;93785.13;;;14.81;39.90
70902;BME280;58548;47.210;8.618;2022-11-20T02:52:53;93767.41;;;14.76;40.02
70902;BME280;58548;47.210;8.618;2022-11-20T02:55:21;93748.06;;;14.70;40.00
70902;BME280;58548;47.210;8.618;2022-11-20T02:57:48;93768.09;;;14.83;39.45
70902;BME280;58548;47.210;8.618;2022-11-20T03:00:17;93746.06;;;14.66;39.69
70902;BME280;58548;47.210;8.618;2022-11-20T03:02:46;93775.88;;;14.78;39.75
70902;BME280;58548;47.210;8.618;2022-11-20T03:05:11;93750.19;;;14.61;39.75
70902;BME280;58548;47.210;8.618;2022-11-20T03:07:40;93746.25;;;14.52;39.56
70902;BME280;58548;47.210;8.618;2022-11-20T03:10:06;93756.09;;;14.57;39.60
70902;BME280;58548;47.210;8.618;2022-11-20T03:12:37;93778.03;;;14.62;39.23
70902;BME280;58548;47.210;8.618;2022-11-20T03:15:06;93751.31;;;14.35;39.57
70902;BME280;58548;47.210;8.618;2022-11-20T03:17:34;93744.09;;;14.30;39.57
70902;BME280;58548;47.210;8.618;2022-11-20T03:20:00;93756.63;;;14.28;39.75
70902;BME280;58548;47.210;8.618;2022-11-20T03:22:29;93757.38;;;14.17;39.72
70902;BME280;58548;47.210;8.618;2022-11-20T03:24:57;93743.97;;;14.07;39.89
70902;BME280;58548;47.210;8.618;2022-11-20T03:27:31;93775.03;;;14.10;39.75
70902;BME280;58548;47.210;8.618;2022-11-20T03:29:57;93758.25;;;13.92;39.67
70902;BME280;58548;47.210;8.618;2022-11-20T03:32:26;93744.25;;;13.80;39.52
70902;BME280;58548;47.210;8.618;2022-11-20T03:34:52;93755.91;;;13.84;39.96
70902;BME280;58548;47.210;8.618;2022-11-20T03:37:17;93739.88;;;13.74;40.40
70902;BME280;58548;47.210;8.618;2022-11-20T03:39:46;93760.72;;;13.87;40.69
70902;BME280;58548;47.210;8.618;2022-11-20T03:42:14;93774.72;;;13.99;40.78
70902;BME280;58548;47.210;8.618;2022-11-20T03:44:58;93776.78;;;13.97;40.98
70902;BME280;58548;47.210;8.618;2022-11-20T03:47:25;93781.22;;;13.97;40.77
70902;BME280;58548;47.210;8.618;2022-11-20T03:49:54;93752.50;;;13.83;40.15
70902;BME280;58548;47.210;8.618;2022-11-20T03:52:19;93761.91;;;13.91;40.60
70902;BME280;58548;47.210;8.618;2022-11-20T03:54:52;93761.97;;;13.84;40.45
70902;BME280;58548;47.210;8.618;2022-11-20T03:57:21;93774.78;;;13.93;40.52
70902;BME280;58548;47.210;8.618;2022-11-20T03:59:47;93759.56;;;13.83;40.64
70902;BME280;58548;47.210;8.618;2022-11-20T04:02:13;93770.63;;;13.85;40.12
70902;BME280;58548;47.210;8.618;2022-11-20T04:04:39;93780.72;;;13.88;40.44
70902;BME280;58548;47.210;8.618;2022-11-20T04:07:08;93755.19;;;13.77;40.35
70902;BME280;58548;47.210;8.618;2022-11-20T04:09:34;93711.50;;;13.38;40.60
70902;BME280;58548;47.210;8.618;2022-11-20T04:12:00;93789.44;;;13.82;40.80
70902;BME280;58548;47.210;8.618;2022-11-20T04:14:26;93786.69;;;13.77;40.86
70902;BME280;58548;47.210;8.618;2022-11-20T04:16:56;93784.53;;;13.67;40.61
70902;BME280;58548;47.210;8.618;2022-11-20T04:19:22;93783.16;;;13.64;40.89
70902;BME280;58548;47.210;8.618;2022-11-20T04:21:48;93799.75;;;13.58;41.11
70902;BME280;58548;47.210;8.618;2022-11-20T04:24:19;93779.47;;;13.47;41.29
70902;BME280;58548;47.210;8.618;2022-11-20T04:26:44;93762.13;;;13.46;41.60
70902;BME280;58548;47.210;8.618;2022-11-20T04:29:11;93788.09;;;13.54;40.99
70902;BME280;58548;47.210;8.618;2022-11-20T04:31:37;93794.94;;;13.55;40.41
70902;BME280;58548;47.210;8.618;2022-11-20T04:34:05;93774.38;;;13.52;40.00
70902;BME280;58548;47.210;8.618;2022-11-20T04:36:32;93767.00;;;13.42;40.15
70902;BME280;58548;47.210;8.618;2022-11-20T04:39:11;93786.84;;;13.56;40.41
70902;BME280;58548;47.210;8.618;2022-11-20T04:41:38;93790.84;;;13.59;40.33
70902;BME280;58548;47.210;8.618;2022-11-20T04:44:05;93794.81;;;13.68;40.29
70902;BME280;58548;47.210;8.618;2022-11-20T04:46:36;93790.59;;;13.67;39.98
70902;BME280;58548;47.210;8.618;2022-11-20T04:49:04;93766.34;;;13.47;40.14
70902;BME280;58548;47.210;8.618;2022-11-20T04:51:33;93780.41;;;13.52;39.68
70902;BME280;58548;47.210;8.618;2022-11-20T04:53:59;93769.41;;;13.44;39.78
70902;BME280;58548;47.210;8.618;2022-11-20T04:56:27;93778.63;;;13.53;39.52
70902;BME280;58548;47.210;8.618;2022-11-20T04:58:59;93787.63;;;13.57;39.34
70902;BME280;58548;47.210;8.618;2022-11-20T05:01:28;93785.19;;;13.62;39.06
70902;BME280;58548;47.210;8.618;2022-11-20T05:03:53;93767.53;;;13.51;38.95
70902;BME280;58548;47.210;8.618;2022-11-20T05:06:20;93780.53;;;13.64;39.23
70902;BME280;58548;47.210;8.618;2022-11-20T05:08:49;93782.13;;;13.65;39.79
70902;BME280;58548;47.210;8.618;2022-11-20T05:11:18;93765.03;;;13.56;40.05
70902;BME280;58548;47.210;8.618;2022-11-20T05:13:45;93787.13;;;13.74;39.83
70902;BME280;58548;47.210;8.618;2022-11-20T05:16:18;93778.84;;;13.70;39.69
70902;BME280;58548;47.210;8.618;2022-11-20T05:18:45;93759.44;;;13.52;39.60
70902;BME280;58548;47.210;8.618;2022-11-20T05:21:12;93760.69;;;13.50;39.33
70902;BME280;58548;47.210;8.618;2022-11-20T05:23:39;93743.78;;;13.39;38.95
70902;BME280;58548;47.210;8.618;2022-11-20T05:26:16;93787.97;;;13.67;38.81
70902;BME280;58548;47.210;8.618;2022-11-20T05:28:42;93774.69;;;13.62;39.08
70902;BME280;58548;47.210;8.618;2022-11-20T05:31:19;93765.63;;;13.58;38.89
70902;BME280;58548;47.210;8.618;2022-11-20T05:33:45;93759.50;;;13.46;39.30
70902;BME280;58548;47.210;8.618;2022-11-20T05:36:13;93786.13;;;13.68;39.46
70902;BME280;58548;47.210;8.618;2022-11-20T05:38:40;93793.22;;;13.67;39.78
70902;BME280;58548;47.210;8.618;2022-11-20T05:41:20;93790.00;;;13.65;39.27
70902;BME280;58548;47.210;8.618;2022-11-20T05:43:47;93787.16;;;13.67;39.54
70902;BME280;58548;47.210;8.618;2022-11-20T05:46:16;93795.69;;;13.62;39.49
70902;BME280;58548;47.210;8.618;2022-11-20T05:48:43;93794.06;;;13.61;39.28
70902;BME280;58548;47.210;8.618;2022-11-20T05:51:13;93800.63;;;13.52;39.59
70902;BME280;58548;47.210;8.618;2022-11-20T05:53:43;93773.28;;;13.34;39.00
70902;BME280;58548;47.210;8.618;2022-11-20T05:56:14;93792.22;;;13.36;39.61
70902;BME280;58548;47.210;8.618;2022-11-20T05:58:41;93788.56;;;13.37;39.38
70902;BME280;58548;47.210;8.618;2022-11-20T06:01:19;93772.47;;;13.08;39.05
70902;BME280;58548;47.210;8.618;2022-11-20T06:03:48;93780.81;;;12.99;39.48
70902;BME280;58548;47.210;8.618;2022-11-20T06:06:17;93804.81;;;12.95;39.60
70902;BME280;58548;47.210;8.618;2022-11-20T06:08:44;93795.03;;;12.77;39.75
70902;BME280;58548;47.210;8.618;2022-11-20T06:11:14;93795.28;;;12.69;40.44
70902;BME280;58548;47.210;8.618;2022-11-20T06:13:40;93807.53;;;12.75;40.51
70902;BME280;58548;47.210;8.618;2022-11-20T06:16:06;93811.97;;;12.75;40.53
70902;BME280;58548;47.210;8.618;2022-11-20T06:18:34;93804.31;;;12.73;40.91
70902;BME280;58548;47.210;8.618;2022-11-20T06:21:14;93812.41;;;12.72;40.75
70902;BME280;58548;47.210;8.618;2022-11-20T06:23:40;93783.81;;;12.63;40.38
70902;BME280;58548;47.210;8.618;2022-11-20T06:26:11;93804.69;;;12.84;40.75
70902;BME280;58548;47.210;8.618;2022-11-20T06:28:40;93815.56;;;12.80;40.57
70902;BME280;58548;47.210;8.618;2022-11-20T06:31:12;93787.81;;;12.73;40.72
70902;BME280;58548;47.210;8.618;2022-11-20T06:33:39;93788.59;;;12.73;40.93
70902;BME280;58548;47.210;8.618;2022-11-20T06:36:12;93807.84;;;12.92;40.93
70902;BME280;58548;47.210;8.618;2022-11-20T06:38:41;93811.84;;;13.02;41.12
70902;BME280;58548;47.210;8.618;2022-11-20T06:41:20;93818.28;;;12.99;40.89
70902;BME280;58548;47.210;8.618;2022-11-20T06:43:49;93817.47;;;13.05;40.90
70902;BME280;58548;47.210;8.618;2022-11-20T06:46:17;93810.25;;;13.26;40.38
70902;BME280;58548;47.210;8.618;2022-11-20T06:48:52;93803.59;;;13.30;40.31
70902;BME280;58548;47.210;8.618;2022-11-20T06:51:21;93820.06;;;13.44;40.30
70902;BME280;58548;47.210;8.618;2022-11-20T06:53:49;93801.97;;;13.29;40.21
70902;BME280;58548;47.210;8.618;2022-11-20T06:56:17;93786.84;;;12.99;40.43
70902;BME280;58548;47.210;8.618;2022-11-20T06:58:43;93796.47;;;13.05;40.58
70902;BME280;58548;47.210;8.618;2022-11-20T07:01:13;93835.78;;;13.44;40.50
70902;BME280;58548;47.210;8.618;2022-11-20T07:03:39;93830.50;;;13.51;39.89
70902;BME280;58548;47.210;8.618;2022-11-20T07:06:08;93820.00;;;13.51;39.64
70902;BME280;58548;47.210;8.618;2022-11-20T07:08:34;93850.19;;;13.60;40.31
70902;BME280;58548;47.210;8.618;2022-11-20T07:11:04;93831.72;;;13.48;40.06
70902;BME280;58548;47.210;8.618;2022-11-20T07:13:33;93836.88;;;13.62;40.09
70902;BME280;58548;47.210;8.618;2022-11-20T07:16:04;93856.06;;;13.81;39.48
70902;BME280;58548;47.210;8.618;2022-11-20T07:18:30;93860.91;;;13.84;39.83
70902;BME280;58548;47.210;8.618;2022-11-20T07:21:05;93870.72;;;13.95;39.55
70902;BME280;58548;47.210;8.618;2022-11-20T07:23:34;93867.78;;;14.03;39.43
70902;BME280;58548;47.210;8.618;2022-11-20T07:26:10;93867.09;;;14.15;39.19
70902;BME280;58548;47.210;8.618;2022-11-20T07:28:43;93857.28;;;14.03;38.73
70902;BME280;58548;47.210;8.618;2022-11-20T07:31:09;93871.03;;;14.24;38.50
70902;BME280;58548;47.210;8.618;2022-11-20T07:33:35;93874.19;;;14.33;38.11
70902;BME280;58548;47.210;8.618;2022-11-20T07:36:04;93861.47;;;14.11;38.53
70902;BME280;58548;47.210;8.618;2022-11-20T07:38:32;93869.72;;;14.15;38.24
70902;BME280;58548;47.210;8.618;2022-11-20T07:40:59;93880.13;;;14.03;38.13
70902;BME280;58548;47.210;8.618;2022-11-20T07:43:30;93828.47;;;13.97;38.17
70902;BME280;58548;47.210;8.618;2022-11-20T07:46:00;93845.06;;;13.97;38.03
70902;BME280;58548;47.210;8.618;2022-11-20T07:48:29;93819.31;;;13.81;38.16
70902;BME280;58548;47.210;8.618;2022-11-20T07:51:00;93870.47;;;13.97;38.09
70902;BME280;58548;47.210;8.618;2022-11-20T07:53:26;93867.19;;;14.01;37.92
70902;BME280;58548;47.210;8.618;2022-11-20T07:55:54;93865.50;;;14.14;38.57
70902;BME280;58548;47.210;8.618;2022-11-20T07:58:20;93874.25;;;14.26;38.41
70902;BME280;58548;47.210;8.618;2022-11-20T08:00:46;93869.81;;;14.27;37.54
70902;BME280;58548;47.210;8.618;2022-11-20T08:03:15;93842.44;;;14.16;37.59
70902;BME280;58548;47.210;8.618;2022-11-20T08:05:41;93853.38;;;14.50;37.65
70902;BME280;58548;47.210;8.618;2022-11-20T08:08:07;93852.22;;;14.65;37.15
70902;BME280;58548;47.210;8.618;2022-11-20T08:10:37;93869.81;;;14.83;38.16
70902;BME280;58548;47.210;8.618;2022-11-20T08:13:06;93859.31;;;15.13;38.59
70902;BME280;58548;47.210;8.618;2022-11-20T08:15:50;93882.84;;;15.81;37.16
70902;BME280;58548;47.210;8.618;2022-11-20T08:18:18;93846.00;;;16.17;36.72
70902;BME280;58548;47.210;8.618;2022-11-20T08:20:44;93842.56;;;16.52;35.89
70902;BME280;58548;47.210;8.618;2022-11-20T08:23:11;93856.28;;;17.07;34.85
70902;BME280;58548;47.210;8.618;2022-11-20T08:25:42;93874.88;;;17.29;33.79
70902;BME280;58548;47.210;8.618;2022-11-20T08:28:09;93887.97;;;17.53;33.81
70902;BME280;58548;47.210;8.618;2022-11-20T08:30:36;93889.16;;;17.45;32.50
70902;BME280;58548;47.210;8.618;2022-11-20T08:33:08;93847.41;;;17.25;32.77
70902;BME280;58548;47.210;8.618;2022-11-20T08:35:38;93890.47;;;17.01;32.87
70902;BME280;58548;47.210;8.618;2022-11-20T08:38:08;93891.06;;;16.92;32.31
70902;BME280;58548;47.210;8.618;2022-11-20T08:40:38;93871.97;;;16.72;33.14
70902;BME280;58548;47.210;8.618;2022-11-20T08:43:06;93895.66;;;16.84;33.20
70902;BME280;58548;47.210;8.618;2022-11-20T08:45:33;93894.09;;;16.71;33.69
70902;BME280;58548;47.210;8.618;2022-11-20T08:48:00;93879.41;;;16.76;33.35
70902;BME280;58548;47.210;8.618;2022-11-20T08:50:27;93890.72;;;16.88;33.18
70902;BME280;58548;47.210;8.618;2022-11-20T08:52:55;93863.59;;;16.64;32.89
70902;BME280;58548;47.210;8.618;2022-11-20T08:55:24;93899.91;;;16.73;33.09
70902;BME280;58548;47.210;8.618;2022-11-20T08:57:50;93882.44;;;16.55;32.71
70902;BME280;58548;47.210;8.618;2022-11-20T09:00:16;93887.00;;;16.48;33.04
70902;BME280;58548;47.210;8.618;2022-11-20T09:02:47;93868.13;;;16.39;33.43
70902;BME280;58548;47.210;8.618;2022-11-20T09:05:12;93906.03;;;16.50;33.33
70902;BME280;58548;47.210;8.618;2022-11-20T09:07:38;93903.63;;;16.49;33.10
70902;BME280;58548;47.210;8.618;2022-11-20T09:10:06;93869.03;;;16.33;33.19
70902;BME280;58548;47.210;8.618;2022-11-20T09:12:37;93880.25;;;16.40;32.88
70902;BME280;58548;47.210;8.618;2022-11-20T09:15:03;93880.50;;;16.27;33.38
70902;BME280;58548;47.210;8.618;2022-11-20T09:17:29;93896.41;;;16.44;34.34
70902;BME280;58548;47.210;8.618;2022-11-20T09:19:59;93874.66;;;16.37;33.66
70902;BME280;58548;47.210;8.618;2022-11-20T09:22:24;93887.47;;;16.45;33.57
70902;BME280;58548;47.210;8.618;2022-11-20T09:24:53;93894.22;;;16.53;33.41
70902;BME280;58548;47.210;8.618;2022-11-20T09:27:19;93878.88;;;16.50;33.12
70902;BME280;58548;47.210;8.618;2022-11-20T09:29:48;93878.88;;;16.50;32.78
70902;BME280;58548;47.210;8.618;2022-11-20T09:32:14;93865.59;;;16.45;32.87
70902;BME280;58548;47.210;8.618;2022-11-20T09:34:40;93884.34;;;16.60;32.88
70902;BME280;58548;47.210;8.618;2022-11-20T09:37:08;93891.81;;;16.63;32.94
70902;BME280;58548;47.210;8.618;2022-11-20T09:39:36;93892.38;;;16.65;32.69
70902;BME280;58548;47.210;8.618;2022-11-20T09:55:48;93878.81;;;17.26;32.54
70902;BME280;58548;47.210;8.618;2022-11-20T09:58:42;93899.50;;;17.46;31.70
70902;BME280;58548;47.210;8.618;2022-11-20T10:01:16;93912.31;;;17.55;31.76
70902;BME280;58548;47.210;8.618;2022-11-20T10:04:00;93907.75;;;17.50;30.96
70902;BME280;58548;47.210;8.618;2022-11-20T10:06:34;93906.72;;;17.51;31.32
70902;BME280;58548;47.210;8.618;2022-11-20T10:20:20;93882.03;;;18.65;29.38
70902;BME280;58548;47.210;8.618;2022-11-20T10:31:44;93879.63;;;18.63;29.63
70902;BME280;58548;47.210;8.618;2022-11-20T10:36:58;93888.66;;;18.84;29.27
70902;BME280;58548;47.210;8.618;2022-11-20T10:42:41;93852.16;;;18.64;28.80
70902;BME280;58548;47.210;8.618;2022-11-20T10:48:16;93885.94;;;18.79;28.41
70902;BME280;58548;47.210;8.618;2022-11-20T10:56:38;93855.06;;;18.63;28.78
70902;BME280;58548;47.210;8.618;2022-11-20T11:01:57;93851.03;;;19.27;29.97
70902;BME280;58548;47.210;8.618;2022-11-20T11:04:32;93863.41;;;20.09;29.42
70902;BME280;58548;47.210;8.618;2022-11-20T11:09:43;93833.53;;;21.97;27.40
70902;BME280;58548;47.210;8.618;2022-11-20T11:12:10;93859.13;;;23.06;25.32
70902;BME280;58548;47.210;8.618;2022-11-20T11:14:45;93838.47;;;23.77;23.22
70902;BME280;58548;47.210;8.618;2022-11-20T11:17:38;93833.00;;;24.27;23.11
70902;BME280;58548;47.210;8.618;2022-11-20T11:22:46;93808.16;;;24.80;21.20
70902;BME280;58548;47.210;8.618;2022-11-20T11:27:52;93811.41;;;25.21;19.93
70902;BME280;58548;47.210;8.618;2022-11-20T11:30:28;93826.94;;;25.19;20.47
70902;BME280;58548;47.210;8.618;2022-11-20T11:33:04;93819.03;;;24.60;20.25
70902;BME280;58548;47.210;8.618;2022-11-20T11:35:31;93823.81;;;24.14;20.66
70902;BME280;58548;47.210;8.618;2022-11-20T11:38:11;93815.16;;;23.53;21.13
70902;BME280;58548;47.210;8.618;2022-11-20T11:40:41;93815.25;;;22.87;21.96
70902;BME280;58548;47.210;8.618;2022-11-20T11:43:19;93806.88;;;22.39;22.51
70902;BME280;58548;47.210;8.618;2022-11-20T11:54:38;93811.78;;;20.75;24.16
70902;BME280;58548;47.210;8.618;2022-11-20T12:05:28;93785.19;;;19.68;26.11
70902;BME280;58548;47.210;8.618;2022-11-20T12:08:05;93780.41;;;19.65;26.26
70902;BME280;58548;47.210;8.618;2022-11-20T12:16:13;93731.09;;;19.59;27.06
70902;BME280;58548;47.210;8.618;2022-11-20T12:18:41;93786.22;;;20.48;27.63
70902;BME280;58548;47.210;8.618;2022-11-20T12:40:24;93758.88;;;21.37;24.63
70902;BME280;58548;47.210;8.618;2022-11-20T12:43:20;93725.38;;;21.15;24.26
70902;BME280;58548;47.210;8.618;2022-11-20T13:06:56;93727.50;;;21.08;24.95
70902;BME280;58548;47.210;8.618;2022-11-20T13:09:23;93724.84;;;21.29;24.38
70902;BME280;58548;47.210;8.618;2022-11-20T13:17:14;93703.44;;;22.87;22.18
70902;BME280;58548;47.210;8.618;2022-11-20T13:19:51;93690.53;;;23.45;22.05
70902;BME280;58548;47.210;8.618;2022-11-20T13:22:28;93701.13;;;24.09;20.79
70902;BME280;58548;47.210;8.618;2022-11-20T13:24:57;93691.16;;;24.39;19.24
70902;BME280;58548;47.210;8.618;2022-11-20T13:27:24;93702.50;;;24.74;19.58
70902;BME280;58548;47.210;8.618;2022-11-20T13:35:42;93679.16;;;24.61;18.41
70902;BME280;58548;47.210;8.618;2022-11-20T13:38:14;93705.22;;;24.69;19.23
70902;BME280;58548;47.210;8.618;2022-11-20T13:43:44;93697.88;;;24.80;17.36
70902;BME280;58548;47.210;8.618;2022-11-20T13:46:13;93665.34;;;24.78;18.29
70902;BME280;58548;47.210;8.618;2022-11-20T13:48:44;93693.41;;;25.13;17.51
70902;BME280;58548;47.210;8.618;2022-11-20T13:54:04;93682.78;;;25.08;17.14
70902;BME280;58548;47.210;8.618;2022-11-20T14:02:14;93637.22;;;23.99;18.09
70902;BME280;58548;47.210;8.618;2022-11-20T14:04:48;93673.25;;;24.20;18.37
70902;BME280;58548;47.210;8.618;2022-11-20T14:07:17;93659.41;;;24.18;18.04
70902;BME280;58548;47.210;8.618;2022-11-20T14:09:56;93647.91;;;23.99;18.40
70902;BME280;58548;47.210;8.618;2022-11-20T14:12:29;93641.34;;;23.86;18.75
70902;BME280;58548;47.210;8.618;2022-11-20T14:14:55;93635.28;;;23.80;18.62
70902;BME280;58548;47.210;8.618;2022-11-20T14:17:29;93664.00;;;23.88;18.49
70902;BME280;58548;47.210;8.618;2022-11-20T14:20:03;93659.47;;;23.59;18.82
70902;BME280;58548;47.210;8.618;2022-11-20T14:22:30;93638.91;;;23.36;19.05
70902;BME280;58548;47.210;8.618;2022-11-20T14:27:42;93639.38;;;23.08;20.13
70902;BME280;58548;47.210;8.618;2022-11-20T14:30:20;93634.03;;;23.13;19.84
70902;BME280;58548;47.210;8.618;2022-11-20T14:32:48;93645.53;;;23.09;19.04
70902;BME280;58548;47.210;8.618;2022-11-20T14:35:24;93600.84;;;22.66;19.58
70902;BME280;58548;47.210;8.618;2022-11-20T14:38:01;93637.31;;;22.65;20.01
70902;BME280;58548;47.210;8.618;2022-11-20T14:40:33;93651.19;;;22.57;19.92
70902;BME280;58548;47.210;8.618;2022-11-20T14:43:24;93642.91;;;22.03;20.31
70902;BME280;58548;47.210;8.618;2022-11-20T14:46:07;93645.69;;;21.67;20.43
70902;BME280;58548;47.210;8.618;2022-11-20T14:48:42;93610.16;;;21.01;20.48
70902;BME280;58548;47.210;8.618;2022-11-20T14:51:10;93619.66;;;20.60;21.02
70902;BME280;58548;47.210;8.618;2022-11-20T14:53:36;93646.72;;;20.57;21.37
70902;BME280;58548;47.210;8.618;2022-11-20T14:56:02;93605.72;;;19.96;21.81
70902;BME280;58548;47.210;8.618;2022-11-20T14:58:33;93647.34;;;19.96;22.65
70902;BME280;58548;47.210;8.618;2022-11-20T15:01:05;93644.28;;;19.77;22.93
70902;BME280;58548;47.210;8.618;2022-11-20T15:03:36;93634.09;;;19.48;22.84
70902;BME280;58548;47.210;8.618;2022-11-20T15:06:07;93618.41;;;19.36;23.09
70902;BME280;58548;47.210;8.618;2022-11-20T15:08:36;93622.34;;;19.33;22.98
70902;BME280;58548;47.210;8.618;2022-11-20T15:11:03;93605.53;;;19.12;22.96
70902;BME280;58548;47.210;8.618;2022-11-20T15:13:41;93616.38;;;19.10;23.70
70902;BME280;58548;47.210;8.618;2022-11-20T15:16:21;93600.31;;;18.90;23.48
70902;BME280;58548;47.210;8.618;2022-11-20T15:18:49;93594.31;;;18.67;23.91
70902;BME280;58548;47.210;8.618;2022-11-20T15:21:18;93625.00;;;18.68;23.87
70902;BME280;58548;47.210;8.618;2022-11-20T15:23:44;93585.50;;;18.29;23.77
70902;BME280;58548;47.210;8.618;2022-11-20T15:26:23;93613.75;;;18.23;24.29
70902;BME280;58548;47.210;8.618;2022-11-20T15:28:50;93617.00;;;18.08;23.66
70902;BME280;58548;47.210;8.618;2022-11-20T15:31:20;93607.34;;;17.74;24.36
70902;BME280;58548;47.210;8.618;2022-11-20T15:33:49;93584.44;;;17.36;24.92
70902;BME280;58548;47.210;8.618;2022-11-20T15:36:18;93545.81;;;16.90;25.38
70902;BME280;58548;47.210;8.618;2022-11-20T15:38:44;93603.13;;;17.12;25.76
70902;BME280;58548;47.210;8.618;2022-11-20T15:41:13;93597.75;;;16.89;25.75
70902;BME280;58548;47.210;8.618;2022-11-20T15:43:41;93594.47;;;16.65;26.17
70902;BME280;58548;47.210;8.618;2022-11-20T15:46:16;93602.53;;;16.58;26.61